Time;durP1;ratioP1;P1;durP2;ratioP2;P2;SDS_P1;SDS_P2;PMS_P1;PMS_P2;Temp;Humidity;BMP_temperature;BMP_pressure;BME280_temperature;BME280_humidity;BME280_pressure;Samples;Min_cycle;Max_cycle;Signal;HPM_P1;HPM_P2
2023/09/24 00:00:10;;;;;;;10.05;6.20;;;;;;;13.53;69.08;101678.75;687288;28;1366;-90
2023/09/24 00:00:32;;;;;;;10.05;6.30;;;;;;;13.51;68.95;101677.84;679365;29;1268;-89
2023/09/24 00:00:57;;;;;;;8.27;6.47;;;;;;;13.53;68.77;101684.00;679520;29;1202;-89
2023/09/24 00:01:18;;;;;;;7.55;6.13;;;;;;;13.53;68.98;101684.00;679517;29;1907;-90
2023/09/24 00:01:38;;;;;;;8.68;6.85;;;;;;;13.48;69.24;101676.00;682713;28;827;-90
2023/09/24 00:01:59;;;;;;;9.07;6.90;;;;;;;13.48;69.51;101680.34;677091;29;1289;-90
2023/09/24 00:02:20;;;;;;;9.70;6.87;;;;;;;13.49;69.06;101683.03;687793;28;1153;-90
2023/09/24 00:02:40;;;;;;;8.10;6.10;;;;;;;13.42;69.13;101671.44;685426;28;1250;-90
2023/09/24 00:03:02;;;;;;;7.30;6.10;;;;;;;13.47;69.38;101687.34;674391;29;1263;-90
2023/09/24 00:03:23;;;;;;;9.05;6.30;;;;;;;13.46;69.07;101688.16;677211;29;1377;-91
2023/09/24 00:03:46;;;;;;;10.88;6.50;;;;;;;13.48;69.13;101683.88;682710;29;1261;-90
2023/09/24 00:04:07;;;;;;;10.55;6.43;;;;;;;13.47;69.24;101686.44;678716;29;1124;-90
2023/09/24 00:04:28;;;;;;;8.57;6.07;;;;;;;13.49;69.36;101697.84;680186;29;1002;-90
2023/09/24 00:04:49;;;;;;;6.75;5.47;;;;;;;13.48;68.98;101685.59;679487;29;1279;-89
2023/09/24 00:05:12;;;;;;;8.35;5.47;;;;;;;13.39;69.33;101673.09;677175;29;1384;-90
2023/09/24 00:05:42;;;;;;;9.05;6.00;;;;;;;13.53;69.16;101694.50;681986;29;1293;-89
2023/09/24 00:06:08;;;;;;;11.38;6.53;;;;;;;13.50;69.19;101694.38;682268;29;1248;-90
2023/09/24 00:06:30;;;;;;;9.95;6.30;;;;;;;13.46;69.14;101695.13;682786;28;1068;-89
2023/09/24 00:06:51;;;;;;;10.32;6.40;;;;;;;13.40;69.08;101686.22;687397;28;1208;-89
2023/09/24 00:07:13;;;;;;;11.27;7.10;;;;;;;13.44;69.54;101689.84;685198;28;1185;-89
2023/09/24 00:07:33;;;;;;;11.23;7.18;;;;;;;13.48;69.26;101691.72;680002;29;1206;-89
2023/09/24 00:07:54;;;;;;;9.95;7.38;;;;;;;13.43;69.39;101688.06;684328;28;1233;-89
2023/09/24 00:08:15;;;;;;;10.20;7.10;;;;;;;13.40;69.67;101681.00;685975;28;1601;-89
2023/09/24 00:08:36;;;;;;;11.93;7.40;;;;;;;13.38;69.61;101679.16;680078;29;1466;-90
2023/09/24 00:08:57;;;;;;;11.85;7.00;;;;;;;13.36;69.88;101687.00;681839;29;1262;-89
2023/09/24 00:09:17;;;;;;;10.60;6.87;;;;;;;13.41;69.55;101695.00;682405;28;1178;-90
2023/09/24 00:09:38;;;;;;;11.23;6.57;;;;;;;13.38;69.66;101695.78;682694;29;1165;-90
2023/09/24 00:10:24;;;;;;;11.13;6.68;;;;;;;13.45;69.83;101701.22;684421;28;1144;-89
2023/09/24 00:10:50;;;;;;;7.80;6.18;;;;;;;13.33;69.74;101684.25;677206;29;1228;-89
2023/09/24 00:11:11;;;;;;;9.00;6.57;;;;;;;13.32;69.61;101679.88;679747;29;1253;-89
2023/09/24 00:11:31;;;;;;;10.38;6.70;;;;;;;13.34;69.71;101693.91;685260;28;1273;-90
2023/09/24 00:11:52;;;;;;;12.00;7.00;;;;;;;13.37;69.86;101698.34;687615;28;1163;-89
2023/09/24 00:12:13;;;;;;;10.43;7.20;;;;;;;13.32;69.89;101690.34;683635;28;1245;-89
2023/09/24 00:12:34;;;;;;;10.88;7.30;;;;;;;13.29;69.76;101687.66;681760;29;1350;-90
2023/09/24 00:12:56;;;;;;;8.93;6.80;;;;;;;13.30;69.58;101687.66;676973;29;1084;-90
2023/09/24 00:13:17;;;;;;;10.93;6.80;;;;;;;13.31;69.59;101693.81;676466;29;1281;-90
2023/09/24 00:13:38;;;;;;;10.75;6.95;;;;;;;13.28;69.94;101696.34;679500;29;1305;-90
2023/09/24 00:13:58;;;;;;;11.48;7.07;;;;;;;13.25;70.01;101683.13;682272;29;1293;-89
2023/09/24 00:14:19;;;;;;;9.55;6.75;;;;;;;13.26;70.06;101695.38;679631;28;1338;-89
2023/09/24 00:14:40;;;;;;;9.68;6.43;;;;;;;13.26;69.81;101687.53;680181;29;815;-90
2023/09/24 00:15:01;;;;;;;9.10;6.30;;;;;;;13.32;69.99;101698.22;679915;29;1281;-90
2023/09/24 00:15:22;;;;;;;8.90;5.93;;;;;;;13.31;69.83;101696.44;679306;29;1234;-89
2023/09/24 00:15:42;;;;;;;9.48;6.07;;;;;;;13.24;69.86;101682.25;682741;28;863;-90
2023/09/24 00:16:06;;;;;;;10.10;6.70;;;;;;;13.29;70.13;101683.28;679793;29;1050;-90
2023/09/24 00:16:26;;;;;;;10.98;7.68;;;;;;;13.36;70.17;101697.47;685104;28;958;-90
2023/09/24 00:16:47;;;;;;;12.73;8.05;;;;;;;13.34;69.92;101688.66;679909;29;1173;-90
2023/09/24 00:17:09;;;;;;;13.15;7.75;;;;;;;13.35;70.01;101697.44;685366;28;962;-90
2023/09/24 00:17:29;;;;;;;13.13;7.68;;;;;;;13.36;69.98;101702.72;685300;28;1396;-89
2023/09/24 00:17:50;;;;;;;11.02;7.57;;;;;;;13.39;69.83;101705.44;684020;28;1319;-90
2023/09/24 00:18:11;;;;;;;10.20;7.25;;;;;;;13.46;69.81;101700.38;686464;28;1301;-89
2023/09/24 00:18:33;;;;;;;9.50;7.50;;;;;;;13.40;69.91;101688.84;682438;29;1378;-90
2023/09/24 00:18:54;;;;;;;8.45;7.30;;;;;;;13.39;69.84;101694.06;684871;28;1213;-90
2023/09/24 00:19:14;;;;;;;10.57;7.60;;;;;;;13.46;70.09;101703.00;687828;28;1020;-90
2023/09/24 00:19:35;;;;;;;10.95;7.20;;;;;;;13.45;69.85;101690.75;687135;28;1248;-90
2023/09/24 00:19:56;;;;;;;12.10;7.20;;;;;;;13.47;69.79;101699.53;684563;28;1224;-90
2023/09/24 00:20:17;;;;;;;12.13;7.40;;;;;;;13.54;69.77;101706.75;685191;28;1013;-90
2023/09/24 00:25:11;;;;;;;8.85;7.25;;;;;;;13.51;69.69;101706.69;690035;28;703;-89
2023/09/24 00:25:33;;;;;;;10.38;7.72;;;;;;;13.48;69.67;101696.97;688710;28;848;-90
2023/09/24 00:25:55;;;;;;;9.63;7.40;;;;;;;13.47;69.80;101691.69;686458;28;1180;-90
2023/09/24 00:26:18;;;;;;;7.78;6.78;;;;;;;13.49;69.49;101701.38;685092;28;954;-90
2023/09/24 00:26:40;;;;;;;7.40;6.38;;;;;;;13.52;69.62;101703.19;681664;29;1198;-90
2023/09/24 00:27:01;;;;;;;7.60;6.38;;;;;;;13.51;69.47;101696.19;679839;29;1112;-90
2023/09/24 00:27:23;;;;;;;8.98;6.68;;;;;;;13.56;69.62;101705.06;679950;29;979;-90
2023/09/24 00:27:44;;;;;;;8.95;6.65;;;;;;;13.49;69.47;101689.97;680190;29;808;-89
2023/09/24 00:28:05;;;;;;;10.30;6.72;;;;;;;13.51;69.37;101697.06;682227;28;1107;-91
2023/09/24 00:28:25;;;;;;;9.30;6.55;;;;;;;13.48;69.35;101698.69;677549;29;1359;-89
2023/09/24 00:28:46;;;;;;;10.45;6.90;;;;;;;13.55;69.27;101711.16;679095;29;1462;-90
2023/09/24 00:29:10;;;;;;;12.30;7.18;;;;;;;13.48;69.59;101706.56;681629;28;1211;-89
2023/09/24 00:29:31;;;;;;;11.70;7.50;;;;;;;13.35;69.31;101690.47;685061;28;1484;-90
2023/09/24 00:29:52;;;;;;;11.45;7.00;;;;;;;13.37;69.73;101701.88;679456;29;1320;-90
2023/09/24 00:30:14;;;;;;;8.53;6.63;;;;;;;13.31;69.57;101696.44;685045;28;1099;-89
2023/09/24 00:30:36;;;;;;;8.00;6.22;;;;;;;13.26;69.87;101690.16;682783;28;1253;-90
2023/09/24 00:30:58;;;;;;;7.00;6.05;;;;;;;13.25;69.99;101691.91;682272;29;1081;-89
2023/09/24 00:31:19;;;;;;;7.45;5.80;;;;;;;13.30;69.78;101702.53;679565;29;1243;-88
2023/09/24 00:31:39;;;;;;;9.35;5.82;;;;;;;13.27;69.93;101702.44;677414;29;1205;-90
2023/09/24 00:32:00;;;;;;;11.00;6.57;;;;;;;13.29;69.85;101706.88;682576;28;1253;-89
2023/09/24 00:32:21;;;;;;;12.45;6.75;;;;;;;13.33;70.04;101701.75;682560;28;1315;-90
2023/09/24 00:32:42;;;;;;;11.68;7.05;;;;;;;13.22;70.09;101699.66;681825;29;1299;-90
2023/09/24 00:33:04;;;;;;;11.93;7.10;;;;;;;13.23;69.95;101706.69;682163;29;1253;-90
2023/09/24 00:33:25;;;;;;;10.65;7.20;;;;;;;13.24;70.04;101703.22;682408;28;1269;-90
2023/09/24 00:33:45;;;;;;;10.98;7.40;;;;;;;13.21;70.05;101703.13;680362;29;1504;-90
2023/09/24 00:34:06;;;;;;;9.23;6.93;;;;;;;13.25;70.27;101709.34;679841;29;1250;-90
2023/09/24 00:34:27;;;;;;;11.38;7.32;;;;;;;13.24;70.21;101707.56;682404;28;1282;-90
2023/09/24 00:34:48;;;;;;;11.10;6.83;;;;;;;13.20;70.14;101705.72;690523;28;1212;-89
2023/09/24 00:35:09;;;;;;;10.90;6.50;;;;;;;13.14;70.11;101701.13;682584;28;1117;-90
2023/09/24 00:35:30;;;;;;;7.80;5.78;;;;;;;13.16;70.24;101702.97;679854;29;1127;-90
2023/09/24 00:35:51;;;;;;;8.73;6.40;;;;;;;13.21;70.30;101707.47;679529;29;1292;-89
2023/09/24 00:36:13;;;;;;;10.10;7.07;;;;;;;13.11;70.21;101696.72;679896;29;1000;-90
2023/09/24 00:36:34;;;;;;;12.02;7.20;;;;;;;13.19;70.30;101717.00;681849;28;1286;-90
2023/09/24 00:36:57;;;;;;;12.10;6.90;;;;;;;13.08;70.21;101696.59;679664;29;1236;-90
2023/09/24 00:37:18;;;;;;;10.55;6.95;;;;;;;13.16;70.10;101713.44;677143;29;1204;-89
2023/09/24 00:37:39;;;;;;;9.50;7.20;;;;;;;13.10;69.98;101709.75;676245;29;812;-89
2023/09/24 00:38:00;;;;;;;9.47;7.27;;;;;;;13.06;70.09;101698.28;682267;28;990;-90
2023/09/24 00:38:20;;;;;;;9.15;6.90;;;;;;;13.09;70.14;101706.22;682233;28;1370;-89
2023/09/24 00:38:41;;;;;;;10.20;7.00;;;;;;;13.02;70.25;101693.75;681695;29;1288;-89
2023/09/24 00:39:02;;;;;;;9.75;6.70;;;;;;;13.07;70.21;101709.63;682041;29;1306;-90
2023/09/24 00:39:23;;;;;;;9.75;6.60;;;;;;;13.01;70.27;101703.38;679730;29;1245;-90
2023/09/24 00:39:44;;;;;;;8.65;6.22;;;;;;;13.05;70.19;101706.06;682474;29;1159;-90
2023/09/24 00:40:05;;;;;;;9.05;6.43;;;;;;;13.00;70.37;101695.44;681887;29;1021;-90
2023/09/24 00:40:26;;;;;;;8.18;6.40;;;;;;;13.07;70.32;101715.78;679917;29;1371;-90
2023/09/24 00:40:50;;;;;;;8.13;6.30;;;;;;;12.98;70.07;101700.63;682355;28;1043;-90
2023/09/24 00:41:10;;;;;;;7.35;6.10;;;;;;;13.08;70.14;101707.06;682481;28;1907;-90
2023/09/24 00:41:31;;;;;;;8.25;6.30;;;;;;;12.97;70.26;101708.47;680012;29;760;-90
2023/09/24 00:41:52;;;;;;;7.38;6.00;;;;;;;12.97;70.26;101697.97;681832;29;1370;-89
2023/09/24 00:42:13;;;;;;;7.70;6.27;;;;;;;12.97;70.04;101709.34;679829;29;1138;-89
2023/09/24 00:42:33;;;;;;;7.67;6.10;;;;;;;13.03;70.42;101713.88;681731;29;1321;-90
2023/09/24 00:42:54;;;;;;;9.00;6.78;;;;;;;13.01;70.55;101715.56;676995;29;1188;-89
2023/09/24 00:43:26;;;;;;;9.88;7.15;;;;;;;12.94;70.23;101700.47;679767;29;1352;-90
2023/09/24 00:43:46;;;;;;;9.45;7.00;;;;;;;12.90;70.29;101696.84;682734;28;1031;-90
2023/09/24 00:44:08;;;;;;;9.07;6.70;;;;;;;12.94;70.34;101701.38;682499;29;1001;-90
2023/09/24 00:44:28;;;;;;;8.15;6.38;;;;;;;12.96;70.38;101706.69;682432;29;1214;-89
2023/09/24 00:44:49;;;;;;;9.00;6.70;;;;;;;12.92;70.22;101699.50;679635;29;1285;-90
2023/09/24 00:45:11;;;;;;;8.98;6.90;;;;;;;13.00;70.26;101719.03;682418;29;1292;-89
2023/09/24 00:45:32;;;;;;;10.57;7.25;;;;;;;12.92;70.34;101704.75;682343;29;1346;-89
2023/09/24 00:45:57;;;;;;;9.15;6.75;;;;;;;13.00;70.29;101724.28;679594;29;1045;-90
2023/09/24 00:46:21;;;;;;;9.85;6.88;;;;;;;12.95;70.43;101707.50;681005;28;1293;-90
2023/09/24 00:46:44;;;;;;;11.68;6.95;;;;;;;12.89;70.43;101701.19;679840;29;911;-90
2023/09/24 00:47:05;;;;;;;13.35;7.20;;;;;;;12.87;70.25;101697.66;681847;29;1191;-89
2023/09/24 00:47:28;;;;;;;9.83;6.60;;;;;;;12.86;70.19;101708.94;679801;29;943;-89
2023/09/24 00:47:50;;;;;;;8.30;6.05;;;;;;;12.86;70.23;101708.06;681120;29;1438;-87
2023/09/24 00:48:10;;;;;;;6.93;5.88;;;;;;;12.94;70.34;101719.72;681239;29;1877;-89
2023/09/24 00:48:32;;;;;;;9.07;6.68;;;;;;;12.86;70.44;101708.94;682588;28;823;-89
2023/09/24 00:48:57;;;;;;;10.50;7.47;;;;;;;12.92;70.69;101710.00;682035;28;1061;-89
2023/09/24 00:49:18;;;;;;;11.20;7.75;;;;;;;12.92;70.42;101710.91;687630;28;1209;-90
2023/09/24 00:49:41;;;;;;;9.60;7.22;;;;;;;12.92;70.33;101712.63;684550;28;1508;-90
2023/09/24 00:50:02;;;;;;;9.27;7.28;;;;;;;12.89;70.42;101706.44;681902;29;1018;-90
2023/09/24 00:50:33;;;;;;;9.88;6.95;;;;;;;12.90;70.38;101709.94;679911;29;1210;-90
2023/09/24 00:50:58;;;;;;;9.63;6.70;;;;;;;12.93;70.58;101711.78;682371;29;1148;-90
2023/09/24 00:51:22;;;;;;;10.38;6.60;;;;;;;12.92;70.56;101713.53;684972;28;1171;-89
2023/09/24 00:51:43;;;;;;;9.15;6.18;;;;;;;12.92;70.30;101717.84;687299;28;1093;-90
2023/09/24 00:52:04;;;;;;;9.45;6.50;;;;;;;12.90;70.48;101712.56;684823;28;1201;-89
2023/09/24 00:52:26;;;;;;;8.85;6.72;;;;;;;12.87;70.28;101708.13;685041;28;1322;-90
2023/09/24 00:52:49;;;;;;;9.30;6.85;;;;;;;12.80;70.42;101700.00;684309;28;1368;-89
2023/09/24 00:53:13;;;;;;;8.93;6.85;;;;;;;12.83;70.50;101705.31;685069;28;1152;-89
2023/09/24 00:53:34;;;;;;;9.63;7.10;;;;;;;12.89;70.19;101722.16;684103;28;1155;-89
2023/09/24 00:53:56;;;;;;;9.70;7.10;;;;;;;12.88;70.21;101715.16;684856;28;1209;-89
2023/09/24 00:54:17;;;;;;;9.00;7.07;;;;;;;12.85;70.40;101709.78;682228;29;1358;-90
2023/09/24 00:54:39;;;;;;;8.30;6.72;;;;;;;12.88;70.63;101715.16;683497;28;1111;-87
2023/09/24 00:55:03;;;;;;;8.80;6.70;;;;;;;12.92;70.63;101724.00;681633;29;1761;-90
2023/09/24 00:55:25;;;;;;;9.82;7.05;;;;;;;12.88;70.59;101709.91;679880;29;1036;-90
2023/09/24 00:55:46;;;;;;;11.13;7.80;;;;;;;12.93;70.61;101720.56;682182;28;1149;-90
2023/09/24 00:56:08;;;;;;;10.23;7.90;;;;;;;12.99;70.41;101727.72;687610;28;1313;-90
2023/09/24 00:56:32;;;;;;;9.93;7.60;;;;;;;12.97;70.44;101729.44;682337;29;863;-90
2023/09/24 00:56:58;;;;;;;11.05;7.88;;;;;;;12.99;70.55;101726.03;679063;29;1206;-90
2023/09/24 00:57:19;;;;;;;15.20;8.18;;;;;;;13.06;70.48;101731.44;679825;29;1143;-89
2023/09/24 00:57:41;;;;;;;14.63;8.50;;;;;;;13.06;70.25;101721.88;677499;29;1386;-88
2023/09/24 00:58:03;;;;;;;9.93;8.10;;;;;;;13.07;70.43;101718.41;676266;29;1394;-91
2023/09/24 00:58:28;;;;;;;8.88;7.93;;;;;;;13.08;70.33;101722.78;676638;29;1169;-90
2023/09/24 00:58:52;;;;;;;8.23;7.43;;;;;;;13.12;70.39;101734.28;674499;29;1380;-89
2023/09/24 00:59:14;;;;;;;9.10;7.25;;;;;;;13.00;70.30;101721.66;677214;29;1114;-89
2023/09/24 00:59:35;;;;;;;11.57;7.45;;;;;;;12.99;70.28;101712.00;679534;29;1257;-89
2023/09/24 00:59:58;;;;;;;14.90;8.20;;;;;;;13.02;70.33;101727.81;679210;29;1315;-90
2023/09/24 01:00:25;;;;;;;13.25;8.15;;;;;;;13.06;70.09;101737.59;684956;28;1374;-89
2023/09/24 01:00:46;;;;;;;12.73;7.70;;;;;;;12.98;70.24;101718.09;680130;29;1402;-89
2023/09/24 01:01:07;;;;;;;11.32;7.07;;;;;;;12.91;70.21;101716.06;684940;28;1985;-89
2023/09/24 01:01:29;;;;;;;11.70;7.40;;;;;;;12.96;69.78;101720.66;684920;28;1154;-90
2023/09/24 01:01:50;;;;;;;10.13;6.97;;;;;;;12.93;70.04;101717.94;679149;29;1233;-90
2023/09/24 01:02:10;;;;;;;9.45;7.00;;;;;;;12.89;69.97;101716.91;677075;29;1265;-90
2023/09/24 01:02:32;;;;;;;10.63;7.10;;;;;;;12.91;70.23;101724.81;679436;29;1268;-90
2023/09/24 01:02:54;;;;;;;10.73;7.28;;;;;;;12.88;70.15;101720.38;679453;29;1100;-90
2023/09/24 01:03:16;;;;;;;9.93;6.90;;;;;;;12.96;70.44;101730.25;679744;29;1143;-90
2023/09/24 01:03:40;;;;;;;8.95;6.70;;;;;;;12.89;70.15;101727.41;683254;28;1317;-90
2023/09/24 01:04:08;;;;;;;8.75;6.90;;;;;;;12.91;70.13;101724.81;679711;29;1202;-90
2023/09/24 01:04:28;;;;;;;7.97;6.75;;;;;;;12.84;70.39;101715.88;677327;29;915;-90
2023/09/24 01:04:49;;;;;;;9.48;7.10;;;;;;;12.85;70.51;101717.63;679547;29;1147;-89
2023/09/24 01:05:10;;;;;;;9.10;7.00;;;;;;;12.86;70.40;101719.41;677087;29;1237;-90
2023/09/24 01:05:31;;;;;;;8.63;6.68;;;;;;;12.85;70.37;101719.38;679728;29;1340;-90
2023/09/24 01:05:53;;;;;;;8.70;6.80;;;;;;;12.86;70.68;101718.53;676738;29;1328;-90
2023/09/24 01:06:14;;;;;;;10.40;7.75;;;;;;;12.84;70.32;101710.63;679612;29;1118;-89
2023/09/24 01:06:35;;;;;;;10.90;8.23;;;;;;;12.84;70.09;101715.00;679885;29;1077;-89
2023/09/24 01:06:57;;;;;;;9.77;8.10;;;;;;;12.88;70.41;101719.47;681893;28;1142;-89
2023/09/24 01:07:17;;;;;;;11.00;8.18;;;;;;;12.89;70.17;101727.41;679759;29;1091;-89
2023/09/24 01:07:42;;;;;;;9.70;7.30;;;;;;;12.86;70.55;101719.41;680001;29;851;-90
2023/09/24 01:08:03;;;;;;;9.13;6.93;;;;;;;12.93;70.43;101730.09;681923;29;1380;-90
2023/09/24 01:08:25;;;;;;;8.40;6.57;;;;;;;12.82;70.33;101704.44;676907;29;1133;-89
2023/09/24 01:08:48;;;;;;;7.47;5.95;;;;;;;12.87;70.44;101721.22;679683;29;1221;-90
2023/09/24 01:09:11;;;;;;;7.88;6.25;;;;;;;12.88;70.28;101725.63;680384;29;1232;-89
2023/09/24 01:09:31;;;;;;;9.90;6.72;;;;;;;12.83;70.41;101716.72;677335;29;894;-90
2023/09/24 01:09:52;;;;;;;9.93;6.90;;;;;;;12.87;70.20;101726.47;676929;29;1081;-89
2023/09/24 01:10:15;;;;;;;9.57;6.60;;;;;;;12.80;69.95;101721.84;677342;29;1298;-89
2023/09/24 01:10:36;;;;;;;8.13;6.63;;;;;;;12.82;70.22;101720.16;682561;28;857;-89
2023/09/24 01:10:58;;;;;;;8.50;7.00;;;;;;;12.86;70.32;101736.88;679440;29;1208;-89
2023/09/24 01:11:19;;;;;;;9.05;7.28;;;;;;;12.80;70.34;101729.72;677132;29;1087;-90
2023/09/24 01:11:40;;;;;;;11.15;7.03;;;;;;;12.84;70.41;101734.19;674311;29;1148;-90
2023/09/24 01:12:03;;;;;;;10.70;6.87;;;;;;;12.79;70.49;101730.53;678843;29;1156;-89
2023/09/24 01:12:29;;;;;;;10.68;6.90;;;;;;;12.82;70.36;101717.53;679084;29;1212;-88
2023/09/24 01:12:54;;;;;;;10.05;7.30;;;;;;;12.85;70.28;101737.72;682176;29;1138;-89
2023/09/24 01:13:19;;;;;;;14.23;7.65;;;;;;;12.80;70.66;101724.47;684762;28;1466;-89
2023/09/24 01:13:45;;;;;;;12.38;7.22;;;;;;;12.77;70.13;101731.34;685149;28;1256;-90
2023/09/24 01:14:07;;;;;;;11.38;7.13;;;;;;;12.85;70.28;101738.59;684838;28;1322;-89
2023/09/24 01:14:29;;;;;;;8.32;6.82;;;;;;;12.75;70.47;101723.41;677089;29;1322;-90
2023/09/24 01:14:49;;;;;;;11.13;7.35;;;;;;;12.78;70.55;101731.38;682054;29;1365;-89
2023/09/24 01:15:13;;;;;;;12.02;7.75;;;;;;;12.79;70.55;101730.53;681291;29;1233;-89
2023/09/24 01:15:34;;;;;;;11.60;8.00;;;;;;;12.77;70.28;101734.81;687866;28;1283;-90
2023/09/24 01:15:55;;;;;;;8.82;7.47;;;;;;;12.79;70.28;101735.75;679454;29;1198;-90
2023/09/24 01:16:16;;;;;;;8.45;7.00;;;;;;;12.74;70.48;101727.75;679767;29;1135;-90
2023/09/24 01:16:37;;;;;;;7.97;6.37;;;;;;;12.73;70.48;101725.09;679895;29;776;-90
2023/09/24 01:16:58;;;;;;;8.45;6.50;;;;;;;12.70;70.24;101720.63;677565;29;1221;-90
2023/09/24 01:17:25;;;;;;;8.40;6.57;;;;;;;12.70;70.18;101720.63;677296;29;1161;-90
2023/09/24 01:17:47;;;;;;;9.02;6.90;;;;;;;12.73;70.48;101730.34;684054;28;1203;-89
2023/09/24 01:18:08;;;;;;;8.70;6.55;;;;;;;12.70;70.25;101724.97;682067;28;1221;-90
2023/09/24 01:18:30;;;;;;;8.98;6.47;;;;;;;12.73;70.41;101735.56;682298;28;1366;-90
2023/09/24 01:18:53;;;;;;;9.98;6.63;;;;;;;12.70;70.43;101730.22;679151;29;1269;-90
2023/09/24 01:19:14;;;;;;;10.73;6.60;;;;;;;12.68;70.67;101727.56;677114;29;1101;-89
2023/09/24 01:19:34;;;;;;;9.57;6.53;;;;;;;12.64;70.23;101722.16;677130;29;1040;-91
2023/09/24 01:19:55;;;;;;;9.73;6.60;;;;;;;12.62;70.22;101722.09;674047;29;1210;-90
2023/09/24 01:20:19;;;;;;;8.52;6.50;;;;;;;12.63;70.13;101729.13;677008;29;1132;-90
2023/09/24 01:20:40;;;;;;;8.60;6.15;;;;;;;12.70;70.32;101735.44;681997;29;1348;-89
2023/09/24 01:21:02;;;;;;;8.63;6.40;;;;;;;12.61;70.55;101726.44;681671;28;1262;-90
2023/09/24 01:21:26;;;;;;;9.30;6.70;;;;;;;12.64;70.69;101732.63;682220;29;1965;-89
2023/09/24 01:21:47;;;;;;;9.90;6.90;;;;;;;12.59;70.67;101724.59;684680;28;1294;-90
2023/09/24 01:22:08;;;;;;;8.82;7.00;;;;;;;12.59;70.65;101725.50;684949;28;1335;-89
2023/09/24 01:22:30;;;;;;;7.63;6.63;;;;;;;12.56;70.50;101720.16;687733;28;1062;-90
2023/09/24 01:22:51;;;;;;;8.02;6.70;;;;;;;12.57;70.59;101721.94;681694;29;1144;-89
2023/09/24 01:23:14;;;;;;;8.65;6.47;;;;;;;12.60;70.54;101729.03;682325;28;1287;-90
2023/09/24 01:23:38;;;;;;;10.30;6.85;;;;;;;12.61;70.74;101729.06;685214;28;857;-90
2023/09/24 01:24:03;;;;;;;9.48;6.72;;;;;;;12.55;70.44;101714.88;682304;28;1394;-89
2023/09/24 01:24:27;;;;;;;9.32;7.22;;;;;;;12.63;70.49;101725.59;682464;29;876;-89
2023/09/24 01:24:47;;;;;;;10.02;7.85;;;;;;;12.58;70.47;101721.09;684988;28;1143;-90
2023/09/24 01:25:08;;;;;;;10.20;7.60;;;;;;;12.56;70.44;101720.16;682403;29;1260;-90
2023/09/24 01:25:36;;;;;;;9.25;6.82;;;;;;;12.59;70.37;101728.13;685043;28;1248;-89
2023/09/24 01:25:57;;;;;;;9.90;6.82;;;;;;;12.53;70.53;101717.41;679409;29;1209;-90
2023/09/24 01:26:19;;;;;;;10.70;7.00;;;;;;;12.55;70.31;101728.84;679575;29;1596;-89
2023/09/24 01:26:40;;;;;;;8.55;6.55;;;;;;;12.58;70.42;101726.34;679959;29;1373;-89
2023/09/24 01:27:01;;;;;;;8.17;6.30;;;;;;;12.56;70.46;101727.13;682227;29;1134;-90
2023/09/24 01:27:23;;;;;;;7.25;6.25;;;;;;;12.57;70.29;101731.50;677075;29;1164;-90
2023/09/24 01:27:45;;;;;;;8.90;7.03;;;;;;;12.53;70.48;101722.66;679831;29;1186;-90
2023/09/24 01:28:07;;;;;;;10.90;7.47;;;;;;;12.60;70.43;101744.72;676606;29;1257;-89
2023/09/24 01:28:27;;;;;;;11.63;7.88;;;;;;;12.46;70.44;101720.66;682264;29;1250;-89
2023/09/24 01:28:48;;;;;;;11.07;7.72;;;;;;;12.59;70.53;101743.84;683871;28;1100;-89
2023/09/24 01:29:09;;;;;;;12.70;8.20;;;;;;;12.44;70.32;101724.97;686632;28;1220;-90
2023/09/24 01:29:30;;;;;;;13.32;8.27;;;;;;;12.55;70.40;101741.94;679887;29;1424;-89
2023/09/24 01:29:53;;;;;;;12.15;8.20;;;;;;;12.55;70.37;101741.94;682193;28;1196;-89
2023/09/24 01:30:14;;;;;;;11.32;7.80;;;;;;;12.51;70.51;101734.81;682060;28;1226;-90
2023/09/24 01:30:34;;;;;;;9.70;7.37;;;;;;;12.57;70.66;101745.50;679645;29;1137;-89
2023/09/24 01:30:56;;;;;;;10.07;7.43;;;;;;;12.47;70.63;101731.19;679681;29;967;-89
2023/09/24 01:31:18;;;;;;;8.88;7.00;;;;;;;12.47;70.44;101728.56;682113;28;1295;-89
2023/09/24 01:31:39;;;;;;;9.15;7.10;;;;;;;12.53;70.45;101735.75;685010;28;1145;-89
2023/09/24 01:31:59;;;;;;;8.90;6.97;;;;;;;12.50;70.49;101734.75;682074;29;971;-90
2023/09/24 01:32:20;;;;;;;9.90;7.40;;;;;;;12.47;70.53;101732.91;687700;28;1298;-89
2023/09/24 01:32:42;;;;;;;9.48;7.25;;;;;;;12.55;70.75;101741.94;682619;28;1380;-89
2023/09/24 01:33:03;;;;;;;11.18;7.72;;;;;;;12.47;70.72;101723.34;679494;29;1319;-89
2023/09/24 01:33:23;;;;;;;11.25;7.90;;;;;;;12.55;70.53;101734.06;677002;29;1091;-90
2023/09/24 01:33:45;;;;;;;13.07;8.55;;;;;;;12.58;70.47;101726.34;682382;29;1250;-90
2023/09/24 01:34:10;;;;;;;13.68;8.18;;;;;;;12.67;70.56;101736.22;684738;28;1222;-90
2023/09/24 01:34:31;;;;;;;13.73;7.60;;;;;;;12.67;70.31;101731.00;685330;28;802;-89
2023/09/24 01:34:51;;;;;;;12.32;7.30;;;;;;;12.68;70.07;101732.81;681828;29;1215;-90
2023/09/24 01:35:12;;;;;;;10.40;7.50;;;;;;;12.73;70.01;101741.69;685237;28;1305;-89
2023/09/24 01:35:34;;;;;;;9.32;7.20;;;;;;;12.68;70.04;101734.50;687887;28;772;-89
2023/09/24 01:35:55;;;;;;;10.23;7.32;;;;;;;12.73;70.09;101740.81;684861;28;1001;-90
2023/09/24 01:36:17;;;;;;;9.38;7.53;;;;;;;12.70;69.85;101727.59;684787;28;999;-89
2023/09/24 01:36:38;;;;;;;11.20;7.80;;;;;;;12.70;70.10;101730.22;684666;28;1361;-90
2023/09/24 01:36:59;;;;;;;11.30;8.40;;;;;;;12.65;70.21;101735.28;676572;29;1441;-89
2023/09/24 01:37:22;;;;;;;11.25;7.85;;;;;;;12.64;70.13;101735.25;679640;29;1198;-90
2023/09/24 01:37:42;;;;;;;10.32;7.65;;;;;;;12.64;69.83;101727.41;684248;28;1260;-89
2023/09/24 01:38:04;;;;;;;11.43;7.63;;;;;;;12.65;69.96;101731.81;681809;29;1157;-90
2023/09/24 01:38:25;;;;;;;12.05;8.30;;;;;;;12.58;69.71;101730.69;676835;29;1536;-90
2023/09/24 01:38:47;;;;;;;12.27;8.80;;;;;;;12.57;69.92;101736.75;676561;29;1529;-90
2023/09/24 01:39:08;;;;;;;11.43;8.38;;;;;;;12.55;70.35;101738.44;679629;29;1270;-90
2023/09/24 01:39:31;;;;;;;9.63;7.55;;;;;;;12.54;70.20;101739.28;682427;29;1012;-90
2023/09/24 01:39:52;;;;;;;8.93;7.00;;;;;;;12.46;70.23;101733.75;684379;28;1273;-90
2023/09/24 01:40:18;;;;;;;10.10;8.00;;;;;;;12.42;70.46;101727.50;679294;29;1284;-89
2023/09/24 01:40:39;;;;;;;12.43;8.73;;;;;;;12.48;70.32;101734.72;682005;29;1218;-90
2023/09/24 01:41:00;;;;;;;11.63;8.37;;;;;;;12.47;70.41;101735.53;684936;28;1171;-89
2023/09/24 01:41:22;;;;;;;11.57;8.10;;;;;;;12.45;70.38;101726.72;679564;29;1899;-89
2023/09/24 01:41:43;;;;;;;9.93;7.80;;;;;;;12.46;70.44;101737.28;680576;29;1341;-90
2023/09/24 01:42:05;;;;;;;10.98;7.93;;;;;;;12.44;70.46;101733.72;679407;29;1179;-90
2023/09/24 01:42:26;;;;;;;8.13;6.90;;;;;;;12.47;70.39;101746.00;679278;29;1233;-90
2023/09/24 01:42:47;;;;;;;8.35;7.03;;;;;;;12.43;70.38;101742.38;679775;29;1090;-89
2023/09/24 01:43:08;;;;;;;7.93;7.07;;;;;;;12.40;70.63;101734.44;679102;29;1284;-89
2023/09/24 01:43:28;;;;;;;9.40;7.55;;;;;;;12.44;70.25;101740.66;682029;29;1394;-88
2023/09/24 01:43:49;;;;;;;10.50;7.33;;;;;;;12.44;70.49;101743.28;679667;29;1104;-90
2023/09/24 01:44:13;;;;;;;11.45;6.78;;;;;;;12.44;70.31;101743.28;679723;29;1219;-89
2023/09/24 01:44:33;;;;;;;13.63;6.68;;;;;;;12.40;70.39;101744.91;677028;29;1288;-89
2023/09/24 01:44:54;;;;;;;13.20;6.70;;;;;;;12.32;70.45;101731.56;679459;29;1240;-90
2023/09/24 01:45:16;;;;;;;11.60;6.93;;;;;;;12.37;70.78;101741.28;677069;29;1120;-90
2023/09/24 01:45:40;;;;;;;8.60;6.82;;;;;;;12.36;70.49;101736.88;677230;29;1235;-89
2023/09/24 01:46:05;;;;;;;10.32;7.43;;;;;;;12.43;70.24;101741.50;679340;29;1058;-89
2023/09/24 01:46:25;;;;;;;12.82;7.80;;;;;;;12.54;70.13;101755.00;682372;29;1321;-90
2023/09/24 01:48:47;;;;;;;13.85;7.70;;;;;;;12.48;70.05;101747.81;687562;28;1272;-90
2023/09/24 01:49:10;;;;;;;13.63;7.70;;;;;;;12.54;70.03;101758.47;684907;28;1395;-89
2023/09/24 01:49:31;;;;;;;10.98;8.20;;;;;;;12.50;70.17;101751.38;679557;29;1382;-90
2023/09/24 01:49:52;;;;;;;10.45;8.05;;;;;;;12.43;69.96;101742.38;676922;29;1337;-89
2023/09/24 01:50:14;;;;;;;10.27;7.55;;;;;;;12.46;69.79;101746.84;679533;29;1265;-89
2023/09/24 01:50:36;;;;;;;10.15;7.05;;;;;;;12.49;69.81;101757.44;678538;29;1419;-89